Time;durP1;ratioP1;P1;durP2;ratioP2;P2;SDS_P1;SDS_P2;PMS_P1;PMS_P2;Temp;Humidity;BMP_temperature;BMP_pressure;BME280_temperature;BME280_humidity;BME280_pressure;Samples;Min_cycle;Max_cycle;Signal;HPM_P1;HPM_P2
2021/07/27 00:00:12;;;;;;;32.57;17.67;;;18.40;99.90;;;;;;5059915;28;20586;-81
2021/07/27 00:02:39;;;;;;;31.30;18.03;;;18.30;99.90;;;;;;5054974;28;20219;-81
2021/07/27 00:05:07;;;;;;;32.87;17.30;;;18.40;99.90;;;;;;5054882;28;20247;-80
2021/07/27 00:07:37;;;;;;;36.80;18.20;;;18.40;99.90;;;;;;5055812;28;20607;-81
2021/07/27 00:10:05;;;;;;;31.10;17.77;;;18.40;99.90;;;;;;5062499;28;20341;-81
2021/07/27 00:12:32;;;;;;;31.00;18.93;;;18.40;99.90;;;;;;5066266;28;20199;-81
2021/07/27 00:14:59;;;;;;;29.77;17.33;;;18.30;99.90;;;;;;5067457;28;20200;-81
2021/07/27 00:17:28;;;;;;;34.30;18.47;;;18.20;99.90;;;;;;5061989;28;20216;-80
2021/07/27 00:19:56;;;;;;;30.97;18.13;;;18.00;99.90;;;;;;5056404;28;20216;-81
2021/07/27 00:22:23;;;;;;;34.40;18.73;;;18.00;99.90;;;;;;5055016;28;20195;-81
2021/07/27 00:24:52;;;;;;;33.87;19.23;;;17.80;99.90;;;;;;5052703;28;20220;-80
2021/07/27 00:27:18;;;;;;;32.00;19.17;;;17.80;99.90;;;;;;5055098;28;20192;-80
2021/07/27 00:29:45;;;;;;;33.37;19.17;;;17.80;99.90;;;;;;5054937;28;20714;-82
2021/07/27 00:32:12;;;;;;;43.27;18.03;;;17.60;99.90;;;;;;5057161;28;20188;-79
2021/07/27 00:34:41;;;;;;;34.97;19.97;;;17.60;99.90;;;;;;5054460;28;20238;-81
2021/07/27 00:37:16;;;;;;;35.67;20.43;;;17.50;99.90;;;;;;5057688;28;20249;-79
2021/07/27 00:39:43;;;;;;;38.13;20.37;;;17.40;99.90;;;;;;5062400;28;20220;-79
2021/07/27 00:42:10;;;;;;;40.83;21.60;;;17.40;99.90;;;;;;5058925;28;20203;-80
2021/07/27 00:44:37;;;;;;;41.13;21.53;;;17.40;99.90;;;;;;5066445;28;20214;-79
2021/07/27 00:47:04;;;;;;;42.17;21.33;;;17.40;99.90;;;;;;5062604;28;20278;-80
2021/07/27 00:49:31;;;;;;;38.83;20.93;;;17.30;99.90;;;;;;5062755;28;20273;-80
2021/07/27 00:52:00;;;;;;;41.47;21.10;;;17.30;99.90;;;;;;5055644;28;20291;-79
2021/07/27 00:54:28;;;;;;;39.00;20.80;;;17.20;99.90;;;;;;5057310;28;20216;-81
2021/07/27 00:56:55;;;;;;;42.57;21.63;;;17.20;99.90;;;;;;5057827;28;20192;-79
2021/07/27 00:59:22;;;;;;;43.67;21.57;;;17.20;99.90;;;;;;5060834;28;20208;-79
2021/07/27 01:01:50;;;;;;;41.03;22.43;;;17.30;99.90;;;;;;5056425;28;20196;-83
2021/07/27 01:04:17;;;;;;;40.67;21.70;;;17.20;99.90;;;;;;5057629;28;20286;-80
2021/07/27 01:06:44;;;;;;;46.33;22.97;;;17.10;99.90;;;;;;5057780;28;20615;-79
2021/07/27 01:09:12;;;;;;;42.93;22.30;;;17.10;99.90;;;;;;5060589;28;20283;-79
2021/07/27 01:11:41;;;;;;;49.17;22.70;;;17.00;99.90;;;;;;5059694;28;20195;-80
2021/07/27 01:14:08;;;;;;;40.83;21.63;;;17.00;99.90;;;;;;5062250;28;20192;-80
2021/07/27 01:16:36;;;;;;;42.40;22.93;;;17.00;99.90;;;;;;5059641;28;20273;-80
2021/07/27 01:19:14;;;;;;;47.83;23.50;;;16.90;99.90;;;;;;5059804;28;20321;-83
2021/07/27 01:38:21;;;;;;;46.53;24.67;;;16.70;99.90;;;;;;5059427;28;20199;-81
2021/07/27 01:40:56;;;;;;;47.83;25.60;;;16.70;99.90;;;;;;5064684;28;20187;-81
2021/07/27 01:43:28;;;;;;;44.40;23.70;;;16.60;99.90;;;;;;5063655;28;20282;-81
2021/07/27 01:45:55;;;;;;;49.93;24.33;;;16.60;99.90;;;;;;5064246;28;20714;-83
2021/07/27 01:48:25;;;;;;;46.57;25.17;;;16.60;99.90;;;;;;5058739;28;20200;-82
2021/07/27 01:50:52;;;;;;;46.97;24.40;;;16.60;99.90;;;;;;5054491;28;20283;-81
2021/07/27 01:53:26;;;;;;;49.17;24.73;;;16.60;99.90;;;;;;5059122;28;20314;-82
2021/07/27 01:55:56;;;;;;;45.43;24.33;;;16.60;99.90;;;;;;5061342;28;20573;-81
2021/07/27 01:58:23;;;;;;;52.83;25.70;;;16.70;99.90;;;;;;5062840;28;20280;-82
2021/07/27 02:00:50;;;;;;;47.33;24.60;;;16.70;99.90;;;;;;5058026;28;20235;-82
2021/07/27 02:03:17;;;;;;;54.53;24.87;;;16.70;99.90;;;;;;5061753;28;20290;-81
2021/07/27 02:05:45;;;;;;;54.93;24.87;;;16.70;99.90;;;;;;5067475;28;20215;-81
2021/07/27 02:08:12;;;;;;;46.07;23.97;;;16.70;99.90;;;;;;5056854;28;20271;-80
2021/07/27 02:10:40;;;;;;;45.70;24.47;;;16.80;99.90;;;;;;5064072;28;20204;-79
2021/07/27 02:13:14;;;;;;;47.57;24.73;;;16.80;99.90;;;;;;5056590;28;20658;-80
2021/07/27 02:15:41;;;;;;;52.20;25.17;;;16.70;99.90;;;;;;5062072;28;20204;-80
2021/07/27 02:18:08;;;;;;;49.43;25.87;;;16.80;99.90;;;;;;5057504;28;20700;-81
2021/07/27 02:20:36;;;;;;;53.20;26.23;;;16.80;99.90;;;;;;5057811;28;20316;-80
2021/07/27 02:23:04;;;;;;;54.57;26.23;;;16.80;99.90;;;;;;5062075;28;20200;-82
2021/07/27 02:25:30;;;;;;;52.50;25.20;;;16.80;99.90;;;;;;5060918;28;20838;-79
2021/07/27 02:27:57;;;;;;;47.83;25.20;;;16.80;99.90;;;;;;5063437;28;20211;-80
2021/07/27 02:30:26;;;;;;;48.43;25.63;;;16.80;99.90;;;;;;5062413;28;20261;-79
2021/07/27 02:32:53;;;;;;;47.90;25.27;;;16.80;99.90;;;;;;5060134;28;20706;-80
2021/07/27 02:35:20;;;;;;;51.93;26.63;;;16.80;99.90;;;;;;5063711;28;20192;-81
2021/07/27 02:37:47;;;;;;;52.27;26.53;;;16.70;99.90;;;;;;5053972;28;20279;-80
2021/07/27 02:40:15;;;;;;;48.27;24.63;;;16.60;99.90;;;;;;5059158;28;20744;-81
2021/07/27 02:42:42;;;;;;;45.83;24.37;;;16.60;99.90;;;;;;5060820;28;20588;-80
2021/07/27 02:45:11;;;;;;;42.00;23.57;;;16.60;99.90;;;;;;5057864;28;20246;-81
2021/07/27 02:47:40;;;;;;;47.47;24.17;;;16.70;99.90;;;;;;5060248;28;20700;-79
2021/07/27 02:50:08;;;;;;;47.73;24.03;;;16.70;99.90;;;;;;5054169;28;20200;-80
2021/07/27 02:52:35;;;;;;;50.83;24.40;;;16.80;99.90;;;;;;5062001;28;20231;-81
2021/07/27 02:55:02;;;;;;;54.57;25.00;;;16.80;99.90;;;;;;5060866;28;20223;-80
2021/07/27 02:57:29;;;;;;;51.13;24.80;;;16.90;99.90;;;;;;5062111;28;20203;-80
2021/07/27 02:59:58;;;;;;;51.03;24.80;;;16.80;99.90;;;;;;5069695;28;20302;-81
2021/07/27 03:02:25;;;;;;;45.67;25.10;;;16.90;99.90;;;;;;5061617;28;20283;-80
2021/07/27 03:04:54;;;;;;;46.27;24.33;;;16.90;99.90;;;;;;5058314;28;20243;-81
2021/07/27 03:07:21;;;;;;;51.53;26.03;;;16.80;99.90;;;;;;5067084;28;20245;-80
2021/07/27 03:12:29;;;;;;;46.67;24.47;;;16.80;99.90;;;;;;5070037;28;20199;-80
2021/07/27 03:14:59;;;;;;;54.97;26.03;;;16.70;99.90;;;;;;5062695;28;20701;-80
2021/07/27 03:17:26;;;;;;;56.40;24.93;;;16.60;99.90;;;;;;5059723;28;20209;-80
2021/07/27 03:19:55;;;;;;;51.13;25.57;;;16.70;99.90;;;;;;5063228;28;20307;-81
2021/07/27 03:22:22;;;;;;;55.93;25.13;;;16.80;99.90;;;;;;5072300;28;20283;-80
2021/07/27 03:24:49;;;;;;;56.17;25.57;;;16.70;99.90;;;;;;5070628;28;20210;-81
2021/07/27 03:27:16;;;;;;;52.73;26.90;;;16.70;99.90;;;;;;5065407;28;20195;-83
2021/07/27 03:29:43;;;;;;;50.53;24.97;;;16.70;99.90;;;;;;5069178;28;20271;-81
2021/07/27 03:32:10;;;;;;;49.93;25.57;;;16.70;99.90;;;;;;5071986;28;20286;-82
2021/07/27 03:34:36;;;;;;;51.70;24.47;;;16.70;99.90;;;;;;5072953;28;20234;-81
2021/07/27 03:37:05;;;;;;;53.90;25.73;;;16.70;99.90;;;;;;5062024;28;20295;-82
2021/07/27 03:39:32;;;;;;;54.80;27.37;;;16.60;99.90;;;;;;5072755;28;20743;-81
2021/07/27 03:41:58;;;;;;;57.97;26.57;;;16.70;99.90;;;;;;5069111;28;20287;-83
2021/07/27 03:44:25;;;;;;;50.70;25.73;;;16.70;99.90;;;;;;5068470;28;20275;-81
2021/07/27 03:46:53;;;;;;;54.20;25.80;;;16.60;99.90;;;;;;5061861;28;20283;-83
2021/07/27 03:49:20;;;;;;;58.33;26.67;;;16.60;99.90;;;;;;5069933;28;20188;-83
2021/07/27 03:51:47;;;;;;;55.67;26.47;;;16.70;99.90;;;;;;5066654;28;20199;-81
2021/07/27 03:54:15;;;;;;;59.53;28.83;;;16.60;99.90;;;;;;5068254;28;20275;-81
2021/07/27 03:56:42;;;;;;;58.07;27.53;;;16.70;99.90;;;;;;5072407;28;20195;-81
2021/07/27 03:59:09;;;;;;;56.97;27.57;;;16.70;99.90;;;;;;5072563;28;20615;-82
2021/07/27 04:01:36;;;;;;;58.30;28.03;;;16.80;99.90;;;;;;5072462;28;20286;-82
2021/07/27 04:04:04;;;;;;;55.33;26.17;;;16.80;99.90;;;;;;5072888;28;20214;-80
2021/07/27 04:06:31;;;;;;;53.23;25.97;;;16.80;99.90;;;;;;5072808;28;20282;-82
2021/07/27 04:08:58;;;;;;;54.57;26.37;;;16.80;99.90;;;;;;5072510;28;20219;-82
2021/07/27 04:11:26;;;;;;;49.87;25.43;;;16.90;99.90;;;;;;5072926;28;20203;-85
2021/07/27 04:13:53;;;;;;;51.17;25.63;;;16.90;99.90;;;;;;5075815;28;20286;-83
2021/07/27 04:16:20;;;;;;;53.33;25.63;;;17.00;99.90;;;;;;5076749;28;20681;-81
2021/07/27 04:18:47;;;;;;;47.60;23.93;;;17.00;99.90;;;;;;5076363;28;20221;-82
2021/07/27 04:21:14;;;;;;;50.47;23.97;;;17.10;99.90;;;;;;5076201;28;20276;-82
2021/07/27 04:23:41;;;;;;;42.40;23.30;;;17.10;99.90;;;;;;5076112;28;20282;-81
2021/07/27 04:26:08;;;;;;;52.63;24.30;;;17.20;99.90;;;;;;5076635;28;20227;-82
2021/07/27 04:28:36;;;;;;;46.30;24.33;;;17.30;99.90;;;;;;5076071;28;20290;-81
2021/07/27 04:31:03;;;;;;;44.73;22.53;;;17.30;99.90;;;;;;5076132;28;20231;-82
2021/07/27 04:33:37;;;;;;;40.30;22.03;;;17.40;99.90;;;;;;5076374;28;20231;-81
2021/07/27 04:36:04;;;;;;;40.23;21.63;;;17.50;99.90;;;;;;5062158;28;20296;-82
2021/07/27 04:38:31;;;;;;;47.43;22.10;;;17.50;99.90;;;;;;5076606;28;20265;-81
2021/07/27 04:40:58;;;;;;;39.97;21.57;;;17.50;99.90;;;;;;5075913;28;20258;-82
2021/07/27 04:43:27;;;;;;;44.73;20.90;;;17.60;99.90;;;;;;5075846;28;20274;-82
2021/07/27 04:45:55;;;;;;;37.60;20.77;;;17.60;99.90;;;;;;5076182;28;20319;-80
2021/07/27 04:48:22;;;;;;;40.63;20.03;;;17.70;99.90;;;;;;5075801;28;20261;-81
2021/07/27 04:50:49;;;;;;;35.67;19.30;;;17.80;99.90;;;;;;5075935;28;20313;-81
2021/07/27 04:53:21;;;;;;;33.60;19.50;;;17.80;99.90;;;;;;5075736;28;20571;-81
2021/07/27 04:55:49;;;;;;;37.40;19.97;;;17.90;99.90;;;;;;5075786;28;20196;-80
2021/07/27 04:58:16;;;;;;;32.80;19.07;;;17.90;99.90;;;;;;5075546;28;20229;-80
2021/07/27 05:00:43;;;;;;;35.43;18.80;;;18.00;99.90;;;;;;5075575;28;20307;-82
2021/07/27 05:03:11;;;;;;;31.60;18.30;;;18.10;99.90;;;;;;5075743;28;20614;-80
2021/07/27 05:05:38;;;;;;;31.67;17.97;;;18.20;99.90;;;;;;5076074;28;20282;-82
2021/07/27 05:08:06;;;;;;;30.43;17.63;;;18.30;99.90;;;;;;5075336;28;20701;-82
2021/07/27 05:10:33;;;;;;;28.00;17.67;;;18.20;99.90;;;;;;5075773;28;20223;-81
2021/07/27 05:13:00;;;;;;;30.40;17.73;;;18.30;99.90;;;;;;5075413;28;20208;-80
2021/07/27 05:15:27;;;;;;;28.97;17.50;;;18.30;99.90;;;;;;5074232;28;20210;-81
2021/07/27 05:17:54;;;;;;;33.90;17.87;;;18.20;99.90;;;;;;5074700;28;20203;-80
2021/07/27 05:20:22;;;;;;;29.80;17.83;;;18.20;99.90;;;;;;5068052;28;20224;-82
2021/07/27 05:22:49;;;;;;;38.97;17.60;;;18.30;99.90;;;;;;5066372;28;20195;-82
2021/07/27 05:25:16;;;;;;;28.80;17.17;;;18.30;99.90;;;;;;5061872;28;20203;-81
2021/07/27 05:27:45;;;;;;;32.23;18.33;;;18.30;99.90;;;;;;5067989;28;20203;-81
2021/07/27 05:30:13;;;;;;;33.80;18.67;;;18.40;99.90;;;;;;5065506;28;20203;-81
2021/07/27 05:32:41;;;;;;;26.17;16.27;;;18.40;99.90;;;;;;5064013;28;20230;-81
2021/07/27 05:35:09;;;;;;;30.60;17.23;;;18.40;99.90;;;;;;5070678;28;20223;-81
2021/07/27 05:37:38;;;;;;;33.37;17.70;;;18.50;99.90;;;;;;5078462;28;20279;-79
2021/07/27 05:40:06;;;;;;;26.23;16.87;;;18.50;99.90;;;;;;5080638;28;20301;-80
2021/07/27 05:42:33;;;;;;;32.40;16.83;;;18.60;99.90;;;;;;5080531;28;20231;-80
2021/07/27 05:45:00;;;;;;;27.63;17.13;;;18.60;99.90;;;;;;5086399;28;20227;-80
2021/07/27 05:47:27;;;;;;;32.17;17.30;;;18.60;99.90;;;;;;5089006;28;20191;-82
2021/07/27 05:49:54;;;;;;;26.13;16.43;;;18.70;99.90;;;;;;5080812;28;20215;-80
2021/07/27 05:52:21;;;;;;;30.50;17.07;;;18.80;99.90;;;;;;5082968;28;20214;-80
2021/07/27 05:54:51;;;;;;;30.20;16.27;;;18.90;99.90;;;;;;5082984;28;20234;-80
2021/07/27 05:57:18;;;;;;;26.17;16.53;;;19.00;99.90;;;;;;5087145;28;20264;-79
2021/07/27 05:59:45;;;;;;;25.90;16.13;;;19.00;99.90;;;;;;5080491;28;20195;-81
2021/07/27 06:02:12;;;;;;;24.03;16.57;;;19.00;99.90;;;;;;5078518;28;20193;-79
2021/07/27 06:04:39;;;;;;;21.43;16.27;;;19.10;99.90;;;;;;5069805;28;20216;-81
2021/07/27 06:07:06;;;;;;;25.93;16.73;;;19.20;99.90;;;;;;5060121;28;20212;-80
2021/07/27 06:09:33;;;;;;;23.87;15.83;;;19.30;99.90;;;;;;5061019;28;20226;-81
2021/07/27 06:12:01;;;;;;;30.37;16.17;;;19.40;99.90;;;;;;5059909;28;20223;-80
2021/07/27 06:14:29;;;;;;;30.10;15.90;;;19.50;99.90;;;;;;5074480;28;20204;-81
2021/07/27 06:16:55;;;;;;;28.10;16.33;;;19.50;99.90;;;;;;5074084;28;20202;-80
2021/07/27 06:19:25;;;;;;;24.17;16.27;;;19.40;99.90;;;;;;5065685;28;20287;-80
2021/07/27 06:21:52;;;;;;;27.17;16.77;;;19.30;99.90;;;;;;5073561;28;20215;-81
2021/07/27 06:24:19;;;;;;;29.17;16.87;;;19.20;99.90;;;;;;5057715;28;20188;-80
2021/07/27 06:26:46;;;;;;;27.23;17.27;;;19.30;99.90;;;;;;5056188;28;20219;-78
2021/07/27 06:29:14;;;;;;;27.27;17.90;;;19.20;99.90;;;;;;5065141;28;20243;-81
2021/07/27 06:31:41;;;;;;;27.20;17.70;;;19.30;99.90;;;;;;5062848;28;20275;-80
2021/07/27 06:34:08;;;;;;;30.53;17.77;;;19.60;99.90;;;;;;5061243;28;20195;-83
2021/07/27 06:36:34;;;;;;;24.17;15.90;;;20.40;99.90;;;;;;5055981;28;20196;-82
2021/07/27 06:39:01;;;;;;;23.90;15.33;;;21.50;99.90;;;;;;5066871;28;20217;-82
2021/07/27 06:41:28;;;;;;;25.83;15.87;;;22.40;99.90;;;;;;5060824;28;20224;-81
2021/07/27 06:43:57;;;;;;;24.83;15.20;;;22.50;99.90;;;;;;5071206;28;20222;-80
2021/07/27 06:46:28;;;;;;;23.40;15.23;;;22.20;99.90;;;;;;5065142;28;20341;-82
2021/07/27 06:48:55;;;;;;;23.52;14.63;;;22.30;99.90;;;;;;5066028;28;20191;-79
2021/07/27 06:51:22;;;;;;;22.15;14.73;;;22.50;99.90;;;;;;5062983;28;20224;-80
2021/07/27 06:53:50;;;;;;;22.52;15.70;;;22.90;99.90;;;;;;5063684;28;20702;-81
2021/07/27 06:56:17;;;;;;;22.83;15.27;;;23.90;99.90;;;;;;5072902;28;20283;-81
2021/07/27 06:58:44;;;;;;;21.65;13.85;;;24.80;99.90;;;;;;5072434;28;20279;-81
2021/07/27 07:01:14;;;;;;;19.50;13.30;;;25.90;99.90;;;;;;5072458;28;20215;-80
2021/07/27 07:03:43;;;;;;;20.83;13.50;;;26.60;99.90;;;;;;5072480;28;20728;-80
2021/07/27 07:06:11;;;;;;;18.27;13.32;;;27.60;99.90;;;;;;5067257;28;20247;-79
2021/07/27 07:08:39;;;;;;;19.60;13.52;;;27.30;99.90;;;;;;5065961;28;20192;-79
2021/07/27 07:11:06;;;;;;;18.00;13.00;;;27.20;99.90;;;;;;5070256;28;20444;-81
2021/07/27 07:13:34;;;;;;;24.73;14.73;;;26.70;99.90;;;;;;5071900;28;20349;-81
2021/07/27 07:16:03;;;;;;;17.80;13.40;;;26.60;99.90;;;;;;5072152;28;20249;-79
2021/07/27 07:18:30;;;;;;;20.65;13.95;;;26.80;99.90;;;;;;5062367;28;20550;-81
2021/07/27 07:20:58;;;;;;;22.30;14.98;;;27.10;99.90;;;;;;5072000;28;20249;-79
2021/07/27 07:23:25;;;;;;;23.83;15.48;;;26.80;99.90;;;;;;5070196;28;20215;-80
2021/07/27 07:25:52;;;;;;;21.88;14.88;;;25.80;99.90;;;;;;5064550;28;20284;-78
2021/07/27 07:28:20;;;;;;;19.05;15.27;;;25.10;99.90;;;;;;5061698;28;20215;-79
2021/07/27 07:30:48;;;;;;;22.95;16.08;;;24.80;99.90;;;;;;5065062;28;20637;-79
2021/07/27 07:33:15;;;;;;;19.45;15.35;;;25.20;99.90;;;;;;5061176;28;20608;-79
2021/07/27 07:35:42;;;;;;;20.33;14.63;;;25.30;99.90;;;;;;5058732;28;20270;-80
2021/07/27 07:38:10;;;;;;;23.17;16.08;;;25.30;99.90;;;;;;5071002;28;20562;-80
2021/07/27 07:40:37;;;;;;;21.95;16.05;;;25.20;99.90;;;;;;5071294;28;20211;-79
2021/07/27 07:43:04;;;;;;;22.15;15.23;;;24.90;99.90;;;;;;5063933;28;20279;-80
2021/07/27 07:45:32;;;;;;;24.85;15.73;;;25.10;99.90;;;;;;5060935;28;20283;-79
2021/07/27 07:47:59;;;;;;;20.50;15.55;;;25.10;99.90;;;;;;5067922;28;20284;-80
2021/07/27 07:50:29;;;;;;;21.73;15.57;;;25.40;99.90;;;;;;5065388;28;20188;-79
2021/07/27 07:52:59;;;;;;;19.17;15.13;;;26.10;99.90;;;;;;5069921;28;20195;-79
2021/07/27 07:55:27;;;;;;;25.35;16.35;;;26.40;99.90;;;;;;5066449;28;20199;-79
2021/07/27 07:57:54;;;;;;;21.58;15.52;;;26.20;99.90;;;;;;5068774;28;20207;-79
2021/07/27 08:00:23;;;;;;;19.58;15.43;;;25.80;99.90;;;;;;5066009;28;20782;-80
2021/07/27 08:02:50;;;;;;;21.98;15.38;;;25.50;99.90;;;;;;5074538;28;20278;-81
2021/07/27 08:05:17;;;;;;;23.85;15.32;;;24.90;99.90;;;;;;5071029;28;20671;-80
2021/07/27 08:07:44;;;;;;;23.70;14.88;;;24.70;99.90;;;;;;5070448;28;20296;-78
2021/07/27 08:10:12;;;;;;;20.60;14.95;;;24.30;99.90;;;;;;5071143;28;20214;-80
2021/07/27 08:12:43;;;;;;;20.67;14.25;;;24.10;99.90;;;;;;5071044;28;20612;-79
2021/07/27 08:15:10;;;;;;;24.73;14.05;;;23.90;99.90;;;;;;5067542;28;20188;-81
2021/07/27 08:17:37;;;;;;;19.48;13.65;;;23.70;99.90;;;;;;5065360;28;20258;-81
2021/07/27 08:20:05;;;;;;;24.77;12.35;;;23.60;99.90;;;;;;5070419;28;20227;-82
2021/07/27 08:22:32;;;;;;;20.58;12.77;;;23.40;99.90;;;;;;5073543;28;20300;-79
2021/07/27 08:25:01;;;;;;;18.40;12.60;;;23.30;99.90;;;;;;5065692;28;20216;-81
2021/07/27 08:27:28;;;;;;;21.50;13.60;;;23.10;99.90;;;;;;5073130;28;20195;-80
2021/07/27 08:29:56;;;;;;;19.38;13.65;;;22.80;99.90;;;;;;5068770;28;20315;-82
2021/07/27 08:32:23;;;;;;;18.55;13.77;;;22.70;99.90;;;;;;5063647;28;20200;-80
2021/07/27 08:34:50;;;;;;;16.88;13.05;;;22.50;99.90;;;;;;5065814;28;20234;-81
2021/07/27 08:37:17;;;;;;;23.48;15.00;;;22.50;99.90;;;;;;5071138;28;20231;-83
2021/07/27 08:39:44;;;;;;;22.48;15.98;;;22.20;99.90;;;;;;5066136;28;20351;-81
2021/07/27 08:42:11;;;;;;;23.63;14.80;;;22.20;99.90;;;;;;5070726;28;20224;-82
2021/07/27 08:44:38;;;;;;;23.77;16.08;;;22.10;99.90;;;;;;5076209;28;20209;-84
2021/07/27 08:47:07;;;;;;;26.15;16.17;;;22.00;99.90;;;;;;5071844;28;20241;-81
2021/07/27 08:49:35;;;;;;;24.15;16.63;;;21.70;99.90;;;;;;5073878;28;20192;-81
2021/07/27 08:52:04;;;;;;;25.08;16.33;;;21.70;99.90;;;;;;5072898;28;20188;-82
2021/07/27 08:54:31;;;;;;;22.05;15.55;;;21.60;99.90;;;;;;5072392;28;20282;-81
2021/07/27 08:57:10;;;;;;;25.52;16.77;;;21.50;99.90;;;;;;5070608;28;20202;-82
2021/07/27 08:59:36;;;;;;;24.55;16.60;;;21.50;99.90;;;;;;5074420;28;20198;-80
2021/07/27 09:02:04;;;;;;;22.33;17.17;;;21.30;99.90;;;;;;5074198;28;20637;-80
2021/07/27 09:04:32;;;;;;;26.00;16.55;;;21.20;99.90;;;;;;5068665;28;20539;-80
2021/07/27 09:07:00;;;;;;;23.67;16.70;;;21.20;99.90;;;;;;5067769;28;20288;-80
2021/07/27 09:09:31;;;;;;;24.17;17.75;;;21.20;99.90;;;;;;5067917;28;20195;-80
2021/07/27 09:12:00;;;;;;;24.95;16.52;;;21.30;99.90;;;;;;5073351;28;20199;-81
2021/07/27 09:14:28;;;;;;;23.45;15.23;;;21.50;99.90;;;;;;5075410;28;20278;-81
2021/07/27 09:16:56;;;;;;;24.15;17.00;;;21.80;99.90;;;;;;5072365;28;20199;-80
2021/07/27 09:19:24;;;;;;;21.80;16.75;;;22.00;99.90;;;;;;5075060;28;20293;-80
2021/07/27 09:22:04;;;;;;;24.60;17.67;;;22.20;99.90;;;;;;5074778;28;20255;-80
2021/07/27 09:24:32;;;;;;;24.52;16.55;;;22.20;99.90;;;;;;5074838;28;20270;-80
2021/07/27 09:27:00;;;;;;;23.88;16.98;;;22.20;99.90;;;;;;5074973;28;20669;-81
2021/07/27 09:29:28;;;;;;;20.90;16.40;;;22.40;99.90;;;;;;5074628;28;20218;-81
2021/07/27 09:31:56;;;;;;;21.13;16.15;;;22.40;99.90;;;;;;5070477;28;20253;-81
2021/07/27 09:34:25;;;;;;;21.05;15.52;;;22.60;99.90;;;;;;5071449;28;20278;-80
2021/07/27 09:37:07;;;;;;;26.02;16.98;;;22.70;99.90;;;;;;5075118;28;20607;-81
2021/07/27 09:39:35;;;;;;;23.85;16.27;;;23.00;99.90;;;;;;5073102;28;20230;-81
2021/07/27 09:42:04;;;;;;;20.52;15.73;;;23.30;99.90;;;;;;5073742;28;20601;-81
2021/07/27 09:44:33;;;;;;;22.45;14.82;;;23.60;99.90;;;;;;5066386;28;20250;-80
2021/07/27 09:47:01;;;;;;;19.85;15.23;;;23.90;99.90;;;;;;5074351;28;20274;-81
2021/07/27 09:49:29;;;;;;;24.52;15.52;;;24.30;99.90;;;;;;5074936;28;20222;-81
2021/07/27 09:51:57;;;;;;;23.88;14.75;;;24.70;99.90;;;;;;5074389;28;20200;-81
2021/07/27 09:54:27;;;;;;;25.52;13.82;;;25.00;99.90;;;;;;5072086;28;20630;-81
2021/07/27 09:56:55;;;;;;;19.15;13.77;;;25.60;99.90;;;;;;5071308;28;20202;-80
2021/07/27 09:59:24;;;;;;;16.70;13.38;;;26.20;99.90;;;;;;5074191;28;20247;-81
2021/07/27 10:01:56;;;;;;;19.90;13.00;;;27.10;99.90;;;;;;5071770;28;20254;-80
2021/07/27 10:04:25;;;;;;;15.18;12.70;;;28.40;99.90;;;;;;5074299;28;20261;-81
2021/07/27 10:06:52;;;;;;;18.52;12.07;;;30.00;99.90;;;;;;5070507;28;20230;-80
2021/07/27 10:09:28;;;;;;;14.80;11.27;;;31.40;99.90;;;;;;5073143;28;20192;-82
2021/07/27 10:12:06;;;;;;;16.85;10.55;;;32.40;99.90;;;;;;5073929;28;20282;-81
2021/07/27 10:14:40;;;;;;;13.18;10.07;;;32.10;99.90;;;;;;5074015;28;20279;-81
2021/07/27 10:17:08;;;;;;;11.55;10.30;;;32.40;99.90;;;;;;5074635;28;20227;-80
2021/07/27 10:19:39;;;;;;;14.77;11.32;;;32.60;99.90;;;;;;5074553;28;20219;-80
2021/07/27 10:22:08;;;;;;;11.77;9.73;;;32.80;99.90;;;;;;5074838;28;20227;-79
2021/07/27 10:24:42;;;;;;;12.45;9.52;;;32.80;99.90;;;;;;5074211;28;20198;-81
2021/07/27 10:27:10;;;;;;;12.15;10.30;;;32.70;99.90;;;;;;5074166;28;20244;-81
2021/07/27 10:29:37;;;;;;;14.30;11.07;;;32.80;99.90;;;;;;5074028;28;20691;-80
2021/07/27 10:32:15;;;;;;;16.38;10.20;;;32.70;99.90;;;;;;5073172;28;20187;-79
2021/07/27 10:34:42;;;;;;;14.50;10.32;;;31.50;99.90;;;;;;5072335;28;20187;-80
2021/07/27 10:37:09;;;;;;;16.88;10.13;;;31.00;99.90;;;;;;5073908;28;20641;-79
2021/07/27 10:39:49;;;;;;;16.30;9.65;;;30.60;99.90;;;;;;5073510;28;20590;-80
2021/07/27 10:42:17;;;;;;;11.15;9.55;;;30.60;99.90;;;;;;5073917;28;20225;-80
2021/07/27 10:44:44;;;;;;;14.05;9.82;;;30.70;99.90;;;;;;5073657;28;20215;-80
2021/07/27 10:47:19;;;;;;;12.60;9.50;;;30.70;99.90;;;;;;5073282;28;20206;-79
2021/07/27 10:49:47;;;;;;;11.43;9.80;;;30.80;99.90;;;;;;5073475;28;20198;-79
2021/07/27 10:52:14;;;;;;;12.43;9.20;;;31.00;99.90;;;;;;5072905;28;20644;-79
2021/07/27 10:54:45;;;;;;;13.07;9.02;;;31.30;99.90;;;;;;5073067;28;20191;-81
2021/07/27 10:57:18;;;;;;;11.68;7.95;;;31.40;99.90;;;;;;5073255;28;20199;-78
2021/07/27 10:59:48;;;;;;;17.67;8.65;;;31.10;99.90;;;;;;5073122;28;20657;-80
2021/07/27 11:02:15;;;;;;;13.95;8.45;;;31.10;99.90;;;;;;5072945;28;20215;-79
2021/07/27 11:04:42;;;;;;;13.85;9.93;;;31.30;99.90;;;;;;5072834;28;20335;-80
2021/07/27 11:07:11;;;;;;;13.93;8.68;;;30.70;99.90;;;;;;5073179;28;20210;-79
2021/07/27 11:09:47;;;;;;;11.80;8.32;;;30.40;99.90;;;;;;5072628;28;20200;-78
2021/07/27 11:12:26;;;;;;;12.60;8.55;;;29.50;99.90;;;;;;5060287;28;20203;-80
2021/07/27 11:15:06;;;;;;;14.25;8.23;;;29.60;99.90;;;;;;5072812;28;20286;-79
2021/07/27 11:17:33;;;;;;;14.05;8.45;;;29.90;99.90;;;;;;5068363;28;20231;-77
2021/07/27 11:20:01;;;;;;;12.65;8.25;;;30.10;99.90;;;;;;5055252;28;20231;-79
2021/07/27 11:22:28;;;;;;;10.60;8.13;;;30.20;99.90;;;;;;5052519;28;20299;-80
2021/07/27 11:24:56;;;;;;;11.48;8.75;;;29.80;99.90;;;;;;5053440;28;20224;-79
2021/07/27 11:27:30;;;;;;;13.30;9.23;;;29.20;99.90;;;;;;5055587;28;20216;-79
2021/07/27 11:29:58;;;;;;;13.07;8.95;;;28.70;99.90;;;;;;5055430;28;20203;-78
2021/07/27 11:32:26;;;;;;;13.43;8.68;;;29.00;99.90;;;;;;5056315;28;20200;-79
2021/07/27 11:34:57;;;;;;;13.75;7.90;;;29.60;99.90;;;;;;5054103;28;20231;-80
2021/07/27 11:37:28;;;;;;;9.88;7.95;;;29.50;99.90;;;;;;5054803;28;20220;-80
2021/07/27 11:39:55;;;;;;;13.73;9.05;;;29.40;99.90;;;;;;5053515;28;20192;-79
2021/07/27 11:42:30;;;;;;;13.88;7.95;;;29.30;99.90;;;;;;5069292;28;20310;-80
2021/07/27 11:44:59;;;;;;;11.50;8.35;;;29.10;99.90;;;;;;5053373;28;20195;-80
2021/07/27 11:47:27;;;;;;;12.43;9.02;;;28.80;99.90;;;;;;5058664;28;20202;-79
2021/07/27 11:49:55;;;;;;;13.23;9.02;;;28.80;99.90;;;;;;5060445;28;20287;-79
2021/07/27 11:52:27;;;;;;;12.95;9.15;;;28.80;99.90;;;;;;5065609;28;20199;-78
2021/07/27 11:55:01;;;;;;;13.43;9.13;;;28.70;99.90;;;;;;5070902;28;20195;-79
2021/07/27 11:57:29;;;;;;;17.77;9.50;;;28.60;99.90;;;;;;5068304;28;20203;-79
2021/07/27 12:00:07;;;;;;;14.38;9.38;;;28.40;99.90;;;;;;5070277;28;20199;-79
2021/07/27 12:02:34;;;;;;;12.27;9.18;;;28.90;99.90;;;;;;5056099;28;20219;-78
2021/07/27 12:05:01;;;;;;;14.00;9.73;;;29.60;99.90;;;;;;5056084;28;20703;-80
2021/07/27 12:07:29;;;;;;;11.65;9.65;;;30.10;99.90;;;;;;5057234;28;20192;-79
2021/07/27 12:09:56;;;;;;;14.38;10.30;;;30.40;99.90;;;;;;5055243;28;20196;-79
2021/07/27 12:12:23;;;;;;;14.60;10.85;;;30.10;99.90;;;;;;5057108;28;20206;-79
2021/07/27 12:14:51;;;;;;;13.77;10.52;;;30.10;99.90;;;;;;5059766;28;20278;-79
2021/07/27 12:17:18;;;;;;;13.43;10.55;;;29.80;99.90;;;;;;5057480;28;20271;-79
2021/07/27 12:19:44;;;;;;;14.10;10.35;;;29.50;99.90;;;;;;5058519;28;20287;-80
2021/07/27 12:22:11;;;;;;;16.98;11.40;;;29.10;99.90;;;;;;5059451;28;20562;-78
2021/07/27 12:24:38;;;;;;;14.82;11.68;;;28.50;99.90;;;;;;5054840;28;20283;-83
2021/07/27 12:27:05;;;;;;;18.40;13.25;;;27.30;99.90;;;;;;5065780;28;20298;-84
2021/07/27 12:29:32;;;;;;;19.85;14.00;;;26.40;99.90;;;;;;5064672;28;20230;-84
2021/07/27 12:32:00;;;;;;;19.67;15.20;;;25.80;99.90;;;;;;5060186;28;20227;-82
2021/07/27 12:34:27;;;;;;;23.25;15.65;;;25.50;99.90;;;;;;5059537;28;20193;-82
2021/07/27 12:36:55;;;;;;;21.52;15.10;;;25.80;99.90;;;;;;5062769;28;20274;-82
2021/07/27 12:39:21;;;;;;;20.05;15.38;;;26.30;99.90;;;;;;5060520;28;20192;-83
2021/07/27 12:41:48;;;;;;;20.67;13.73;;;26.50;99.90;;;;;;5071483;28;20282;-82
2021/07/27 12:44:16;;;;;;;18.25;13.93;;;26.50;99.90;;;;;;5072492;28;20613;-80
2021/07/27 12:46:43;;;;;;;19.85;13.75;;;26.40;99.90;;;;;;5059512;28;20231;-82
2021/07/27 12:49:14;;;;;;;18.55;14.02;;;26.00;99.90;;;;;;5060600;28;20287;-82
2021/07/27 12:51:41;;;;;;;20.92;13.77;;;25.50;99.90;;;;;;5063167;28;20202;-82